createdAt,value
2018-12-02T00:00:56.987Z,1001.32
2018-12-02T00:01:56.968Z,1001.27
2018-12-02T00:02:56.971Z,1001.24
2018-12-02T00:03:56.940Z,1001.28
2018-12-02T00:04:56.912Z,1001.26
2018-12-02T00:05:56.891Z,1001.25
2018-12-02T00:06:56.870Z,1001.24
2018-12-02T00:07:56.856Z,1001.24
2018-12-02T00:08:56.857Z,1001.24
2018-12-02T00:09:56.804Z,1001.24
2018-12-02T00:10:56.788Z,1001.20
2018-12-02T00:11:56.785Z,1001.16
2018-12-02T00:12:56.766Z,1001.16
2018-12-02T00:13:57.392Z,1001.19
2018-12-02T00:14:56.727Z,1001.14
2018-12-02T00:15:57.383Z,1001.16
2018-12-02T00:16:56.685Z,1001.19
2018-12-02T00:17:56.672Z,1001.17
2018-12-02T00:18:56.658Z,1001.16
2018-12-02T00:19:56.625Z,1001.16
2018-12-02T00:20:56.614Z,1001.17
2018-12-02T00:21:56.578Z,1001.11
2018-12-02T00:22:56.562Z,1001.09
2018-12-02T00:23:56.547Z,1001.08
2018-12-02T00:24:56.534Z,1001.11
2018-12-02T00:25:56.507Z,1001.05
2018-12-02T00:26:56.501Z,1001.03
2018-12-02T00:27:56.461Z,1001.06
2018-12-02T00:28:56.481Z,1001.02
2018-12-02T00:29:56.429Z,1000.98
2018-12-02T00:30:56.407Z,1000.96
2018-12-02T00:31:56.380Z,1000.93
2018-12-02T00:32:56.412Z,1000.93
2018-12-02T00:33:56.344Z,1000.89
2018-12-02T00:34:56.683Z,1000.88
2018-12-02T00:35:56.325Z,1000.89
2018-12-02T00:36:56.287Z,1000.83
2018-12-02T00:37:56.275Z,1000.84
2018-12-02T00:38:56.256Z,1000.78
2018-12-02T00:39:56.230Z,1000.83
2018-12-02T00:40:56.235Z,1000.80
2018-12-02T00:41:56.192Z,1000.76
2018-12-02T00:42:56.179Z,1000.75
2018-12-02T00:43:56.150Z,1000.75
2018-12-02T00:44:56.131Z,1000.70
2018-12-02T00:45:56.119Z,1000.66
2018-12-02T00:46:56.113Z,1000.66
2018-12-02T00:47:56.089Z,1000.61
2018-12-02T00:48:56.068Z,1000.58
2018-12-02T00:49:56.047Z,1000.59
2018-12-02T00:50:56.058Z,1000.57
2018-12-02T00:51:56.000Z,1000.58
2018-12-02T00:52:55.989Z,1000.56
2018-12-02T00:53:55.978Z,1000.57
2018-12-02T00:54:55.950Z,1000.60
2018-12-02T00:55:55.929Z,1000.58
2018-12-02T00:56:56.431Z,1000.59
2018-12-02T00:57:55.891Z,1000.58
2018-12-02T00:58:55.879Z,1000.52
2018-12-02T00:59:55.843Z,1000.51
2018-12-02T01:00:55.842Z,1000.44
2018-12-02T01:01:55.822Z,1000.51
2018-12-02T01:02:55.785Z,1000.51
2018-12-02T01:03:55.766Z,1000.47
2018-12-02T01:04:55.749Z,1000.37
2018-12-02T01:05:55.748Z,1000.41
2018-12-02T01:06:55.733Z,1000.37
2018-12-02T01:07:55.692Z,1000.39
2018-12-02T01:08:55.668Z,1000.33
2018-12-02T01:09:55.647Z,1000.29
2018-12-02T01:10:55.626Z,1000.26
2018-12-02T01:11:55.611Z,1000.18
2018-12-02T01:12:55.609Z,1000.23
2018-12-02T01:13:55.571Z,1000.19
2018-12-02T01:14:55.551Z,1000.18
2018-12-02T01:15:55.553Z,1000.21
2018-12-02T01:16:55.513Z,1000.16
2018-12-02T01:17:55.513Z,1000.17
2018-12-02T01:18:55.489Z,1000.13
2018-12-02T01:19:55.460Z,1000.16
2018-12-02T01:20:55.443Z,1000.15
2018-12-02T01:21:55.421Z,1000.15
2018-12-02T01:22:55.393Z,1000.16
2018-12-02T01:23:55.393Z,1000.13
2018-12-02T01:24:55.357Z,1000.16
2018-12-02T01:25:55.340Z,1000.10
2018-12-02T01:26:55.336Z,1000.15
2018-12-02T01:27:55.319Z,1000.15
2018-12-02T01:28:55.284Z,1000.17
2018-12-02T01:29:55.277Z,1000.10
2018-12-02T01:30:55.241Z,1000.10
2018-12-02T01:31:55.223Z,1000.07
2018-12-02T01:32:55.207Z,1000.14
2018-12-02T01:33:55.196Z,1000.15
2018-12-02T01:34:55.160Z,1000.17
2018-12-02T01:35:55.167Z,1000.13
2018-12-02T01:36:55.128Z,1000.13
2018-12-02T01:37:55.107Z,1000.11
2018-12-02T01:38:55.084Z,1000.10
2018-12-02T01:39:55.067Z,1000.08
2018-12-02T01:40:55.068Z,1000.05
2018-12-02T01:41:55.037Z,1000.04
2018-12-02T01:42:55.028Z,1000.00
2018-12-02T01:43:54.987Z,1000.03
2018-12-02T01:44:54.970Z,999.98
2018-12-02T01:45:54.957Z,1000.00
2018-12-02T01:46:54.950Z,999.98
2018-12-02T01:47:54.916Z,999.97
2018-12-02T01:48:54.895Z,999.89
2018-12-02T01:49:54.876Z,999.92
2018-12-02T01:50:54.859Z,999.91
2018-12-02T01:51:54.837Z,999.91
2018-12-02T01:52:54.839Z,999.89
2018-12-02T01:53:54.812Z,999.85
2018-12-02T01:54:54.777Z,999.80
2018-12-02T01:55:54.759Z,999.84
2018-12-02T01:56:54.740Z,999.82
2018-12-02T01:57:54.736Z,999.82
2018-12-02T01:58:54.702Z,999.84
2018-12-02T01:59:54.679Z,999.77
2018-12-02T02:00:54.660Z,999.72
2018-12-02T02:01:54.644Z,999.65
2018-12-02T02:02:54.632Z,999.67
2018-12-02T02:03:54.628Z,999.63
2018-12-02T02:04:54.616Z,999.62
2018-12-02T02:05:54.567Z,999.59
2018-12-02T02:06:54.548Z,999.59
2018-12-02T02:07:54.525Z,999.64
2018-12-02T02:08:54.524Z,999.54
2018-12-02T02:09:54.489Z,999.59
2018-12-02T02:10:54.469Z,999.56
2018-12-02T02:11:54.453Z,999.54
2018-12-02T02:12:54.429Z,999.50
2018-12-02T02:13:54.436Z,999.49
2018-12-02T02:14:54.391Z,999.52
2018-12-02T02:15:54.392Z,999.48
2018-12-02T02:16:54.352Z,999.55
2018-12-02T02:17:54.332Z,999.53
2018-12-02T02:18:54.313Z,999.49
2018-12-02T02:19:54.295Z,999.51
2018-12-02T02:20:54.273Z,999.45
2018-12-02T02:21:54.272Z,999.47
2018-12-02T02:22:54.235Z,999.45
2018-12-02T02:23:54.217Z,999.45
2018-12-02T02:24:54.195Z,999.45
2018-12-02T02:25:54.194Z,999.41
2018-12-02T02:26:54.155Z,999.36
2018-12-02T02:27:54.135Z,999.36
2018-12-02T02:28:54.117Z,999.34
2018-12-02T02:29:54.097Z,999.34
2018-12-02T02:30:54.078Z,999.31
2018-12-02T02:31:54.079Z,999.30
2018-12-02T02:32:54.052Z,999.29
2018-12-02T02:33:54.015Z,999.32
2018-12-02T02:34:53.995Z,999.27
2018-12-02T02:35:53.981Z,999.29
2018-12-02T02:36:53.964Z,999.28
2018-12-02T02:37:53.963Z,999.27
2018-12-02T02:38:53.922Z,999.25
2018-12-02T02:39:53.967Z,999.28
2018-12-02T02:40:53.882Z,999.24
2018-12-02T02:41:53.879Z,999.24
2018-12-02T02:42:53.869Z,999.19
2018-12-02T02:43:53.822Z,999.21
2018-12-02T02:44:53.802Z,999.17
2018-12-02T02:45:53.784Z,999.19
2018-12-02T02:46:53.772Z,999.17
2018-12-02T02:47:53.758Z,999.16
2018-12-02T02:48:53.739Z,999.13
2018-12-02T02:49:53.701Z,999.13
2018-12-02T02:50:53.685Z,999.13
2018-12-02T02:51:53.669Z,999.10
2018-12-02T02:52:53.656Z,999.07
2018-12-02T02:53:53.625Z,999.08
2018-12-02T02:54:53.606Z,999.11
2018-12-02T02:55:53.582Z,999.07
2018-12-02T02:56:53.572Z,999.07
2018-12-02T02:57:54.463Z,999.07
2018-12-02T02:58:53.524Z,999.05
2018-12-02T02:59:53.506Z,999.08
2018-12-02T03:00:53.488Z,999.02
2018-12-02T03:01:53.467Z,999.02
2018-12-02T03:02:53.452Z,999.04
2018-12-02T03:03:53.441Z,999.03
2018-12-02T03:04:53.425Z,999.02
2018-12-02T03:05:53.384Z,999.01
2018-12-02T03:06:53.363Z,999.00
2018-12-02T03:07:53.349Z,999.01
2018-12-02T03:08:53.351Z,998.94
2018-12-02T03:09:53.303Z,998.97
2018-12-02T03:10:53.285Z,998.95
2018-12-02T03:11:53.266Z,998.96
2018-12-02T03:12:53.265Z,998.95
2018-12-02T03:13:53.242Z,998.93
2018-12-02T03:14:53.206Z,998.89
2018-12-02T03:15:53.189Z,998.90
2018-12-02T03:16:53.163Z,998.87
2018-12-02T03:17:53.161Z,998.86
2018-12-02T03:18:53.131Z,998.84
2018-12-02T03:19:53.120Z,998.84
2018-12-02T03:20:53.097Z,998.78
2018-12-02T03:21:53.065Z,998.78
2018-12-02T03:22:53.065Z,998.77
2018-12-02T03:23:53.032Z,998.79
2018-12-02T03:24:53.027Z,998.74
2018-12-02T03:25:52.995Z,998.72
2018-12-02T03:26:52.967Z,998.73
2018-12-02T03:27:52.948Z,998.72
2018-12-02T03:28:52.943Z,998.69
2018-12-02T03:29:52.920Z,998.68
2018-12-02T03:30:52.907Z,998.72
2018-12-02T03:31:52.869Z,998.66
2018-12-02T03:32:52.858Z,998.72
2018-12-02T03:33:52.828Z,998.67
2018-12-02T03:34:52.806Z,998.61
2018-12-02T03:35:52.804Z,998.56
2018-12-02T03:36:52.766Z,998.55
2018-12-02T03:37:52.745Z,998.52
2018-12-02T03:38:52.730Z,998.50
2018-12-02T03:39:52.706Z,998.53
2018-12-02T03:40:52.703Z,998.52
2018-12-02T03:41:52.664Z,998.53
2018-12-02T03:42:52.646Z,998.45
2018-12-02T03:43:52.620Z,998.39
2018-12-02T03:44:52.612Z,998.40
2018-12-02T03:45:52.604Z,998.35
2018-12-02T03:46:52.563Z,998.34
2018-12-02T03:47:52.542Z,998.32
2018-12-02T03:48:52.524Z,998.29
2018-12-02T03:49:52.508Z,998.32
2018-12-02T03:50:52.502Z,998.32
2018-12-02T03:51:52.467Z,998.31
2018-12-02T03:52:52.446Z,998.30
2018-12-02T03:53:52.421Z,998.26
2018-12-02T03:54:52.402Z,998.25
2018-12-02T03:55:52.397Z,998.29
2018-12-02T03:56:52.361Z,998.21
2018-12-02T03:57:52.349Z,998.23
2018-12-02T03:58:52.321Z,998.27
2018-12-02T03:59:52.300Z,998.22
2018-12-02T04:00:52.308Z,998.21
2018-12-02T04:01:52.263Z,998.22
2018-12-02T04:02:52.244Z,998.19
2018-12-02T04:03:52.226Z,998.17
2018-12-02T04:04:52.209Z,998.16
2018-12-02T04:05:52.229Z,998.16
2018-12-02T04:06:52.180Z,998.17
2018-12-02T04:07:52.146Z,998.14
2018-12-02T04:08:52.117Z,998.10
2018-12-02T04:09:52.101Z,998.10
2018-12-02T04:10:52.076Z,998.08
2018-12-02T04:11:52.060Z,998.08
2018-12-02T04:12:52.050Z,998.08
2018-12-02T04:13:52.016Z,997.98
2018-12-02T04:14:51.992Z,997.99
2018-12-02T04:15:52.009Z,997.98
2018-12-02T04:16:51.991Z,997.99
2018-12-02T04:17:51.965Z,998.01
2018-12-02T04:18:51.930Z,997.98
2018-12-02T04:19:51.897Z,997.93
2018-12-02T04:20:51.876Z,997.86
2018-12-02T04:21:52.157Z,997.88
2018-12-02T04:22:51.846Z,997.87
2018-12-02T04:23:51.834Z,997.83
2018-12-02T04:24:51.811Z,997.80
2018-12-02T04:25:51.773Z,997.81
2018-12-02T04:26:51.775Z,997.82
2018-12-02T04:27:51.740Z,997.83
2018-12-02T04:28:51.713Z,997.75
2018-12-02T04:29:51.719Z,997.76
2018-12-02T04:30:51.671Z,997.78
2018-12-02T04:31:51.654Z,997.77
2018-12-02T04:32:51.654Z,997.72
2018-12-02T04:33:51.612Z,997.75
2018-12-02T04:34:51.596Z,997.72
2018-12-02T04:35:51.593Z,997.69
2018-12-02T04:36:51.554Z,997.69
2018-12-02T04:37:51.540Z,997.69
2018-12-02T04:38:51.513Z,997.65
2018-12-02T04:39:51.508Z,997.63
2018-12-02T04:40:51.490Z,997.64
2018-12-02T04:41:51.454Z,997.66
2018-12-02T04:42:51.437Z,997.65
2018-12-02T04:43:51.418Z,997.61
2018-12-02T04:44:51.386Z,997.63
2018-12-02T04:45:51.388Z,997.58
2018-12-02T04:46:51.346Z,997.59
2018-12-02T04:47:51.345Z,997.58
2018-12-02T04:48:51.309Z,997.55
2018-12-02T04:49:51.288Z,997.52
2018-12-02T04:50:51.288Z,997.56
2018-12-02T04:51:51.247Z,997.55
2018-12-02T04:52:51.259Z,997.56
2018-12-02T04:53:51.207Z,997.52
2018-12-02T04:54:51.187Z,997.48
2018-12-02T04:55:51.179Z,997.46
2018-12-02T04:56:51.164Z,997.46
2018-12-02T04:57:51.142Z,997.43
2018-12-02T04:58:51.108Z,997.41
2018-12-02T04:59:51.087Z,997.45
2018-12-02T05:00:51.076Z,997.41
2018-12-02T05:01:51.065Z,997.40
2018-12-02T05:02:51.037Z,997.41
2018-12-02T05:03:51.007Z,997.41
2018-12-02T05:04:50.988Z,997.37
2018-12-02T05:05:50.968Z,997.37
2018-12-02T05:06:50.946Z,997.38
2018-12-02T05:07:50.943Z,997.39
2018-12-02T05:08:50.906Z,997.36
2018-12-02T05:09:50.887Z,997.32
2018-12-02T05:10:50.862Z,997.31
2018-12-02T05:11:50.843Z,997.28
2018-12-02T05:12:50.828Z,997.26
2018-12-02T05:13:50.819Z,997.24
2018-12-02T05:14:50.780Z,997.23
2018-12-02T05:15:50.761Z,997.22
2018-12-02T05:16:50.740Z,997.17
2018-12-02T05:17:50.725Z,997.17
2018-12-02T05:18:50.730Z,997.11
2018-12-02T05:19:50.684Z,997.11
2018-12-02T05:20:50.660Z,997.06
2018-12-02T05:21:50.639Z,997.02
2018-12-02T05:22:50.633Z,997.03
2018-12-02T05:23:50.617Z,997.00
2018-12-02T05:24:50.583Z,996.96
2018-12-02T05:25:50.577Z,996.94
2018-12-02T05:26:50.541Z,996.89
2018-12-02T05:27:50.530Z,996.87
2018-12-02T05:28:50.520Z,996.87
2018-12-02T05:29:50.482Z,996.87
2018-12-02T05:30:50.479Z,996.80
2018-12-02T05:31:50.438Z,996.78
2018-12-02T05:32:50.425Z,996.81
2018-12-02T05:33:50.397Z,996.79
2018-12-02T05:34:50.387Z,996.77
2018-12-02T05:35:50.376Z,996.83
2018-12-02T05:36:50.338Z,996.84
2018-12-02T05:37:50.321Z,996.80
2018-12-02T05:38:50.301Z,996.75
2018-12-02T05:39:50.279Z,996.71
2018-12-02T05:40:50.274Z,996.71
2018-12-02T05:41:50.237Z,996.67
2018-12-02T05:42:50.219Z,996.67
2018-12-02T05:43:50.201Z,996.64
2018-12-02T05:44:50.180Z,996.60
2018-12-02T05:45:50.178Z,996.60
2018-12-02T05:46:50.138Z,996.58
2018-12-02T05:47:50.121Z,996.56
2018-12-02T05:48:50.099Z,996.55
2018-12-02T05:49:50.074Z,996.57
2018-12-02T05:50:50.060Z,996.58
2018-12-02T05:51:50.048Z,996.59
2018-12-02T05:52:50.019Z,996.56
2018-12-02T05:53:49.995Z,996.54
2018-12-02T05:54:49.976Z,996.56
2018-12-02T05:55:49.960Z,996.54
2018-12-02T05:56:49.957Z,996.55
2018-12-02T05:57:49.919Z,996.50
2018-12-02T05:58:49.908Z,996.48
2018-12-02T05:59:49.880Z,996.52
2018-12-02T06:00:49.855Z,996.50
2018-12-02T06:01:49.839Z,996.46
2018-12-02T06:02:49.837Z,996.46
2018-12-02T06:03:49.811Z,996.49
2018-12-02T06:04:49.783Z,996.46
2018-12-02T06:05:49.767Z,996.49
2018-12-02T06:06:49.737Z,996.48
2018-12-02T06:07:49.718Z,996.51
2018-12-02T06:08:49.711Z,996.48
2018-12-02T06:09:49.678Z,996.50
2018-12-02T06:10:49.653Z,996.48
2018-12-02T06:11:49.639Z,996.48
2018-12-02T06:12:49.611Z,996.47
2018-12-02T06:13:49.611Z,996.52
2018-12-02T06:14:49.593Z,996.53
2018-12-02T06:15:49.574Z,996.50
2018-12-02T06:16:49.537Z,996.48
2018-12-02T06:17:49.528Z,996.52
2018-12-02T06:18:49.515Z,996.53
2018-12-02T06:19:49.477Z,996.46
2018-12-02T06:20:49.474Z,996.45
2018-12-02T06:21:49.435Z,996.38
2018-12-02T06:22:49.414Z,996.41
2018-12-02T06:23:49.413Z,996.34
2018-12-02T06:24:49.376Z,996.33
2018-12-02T06:25:49.354Z,996.31
2018-12-02T06:26:49.339Z,996.35
2018-12-02T06:27:49.320Z,996.33
2018-12-02T06:28:49.294Z,996.30
2018-12-02T06:29:49.298Z,996.31
2018-12-02T06:30:49.257Z,996.29
2018-12-02T06:31:49.238Z,996.32
2018-12-02T06:32:49.215Z,996.28
2018-12-02T06:33:49.203Z,996.28
2018-12-02T06:34:49.176Z,996.27
2018-12-02T06:37:31.423Z,996.27
2018-12-02T06:38:31.402Z,996.27
2018-12-02T06:39:31.372Z,996.27
2018-12-02T06:40:31.375Z,996.24
2018-12-02T06:41:31.347Z,996.21
2018-12-02T06:42:31.315Z,996.21
2018-12-02T06:43:31.292Z,996.20
2018-12-02T06:44:31.269Z,996.18
2018-12-02T06:45:31.268Z,996.19
2018-12-02T06:46:31.238Z,996.19
2018-12-02T06:47:31.216Z,996.19
2018-12-02T06:48:31.195Z,996.22
2018-12-02T06:49:31.176Z,996.14
2018-12-02T06:50:31.176Z,996.17
2018-12-02T06:51:31.153Z,996.20
2018-12-02T06:52:31.120Z,996.23
2018-12-02T06:53:31.102Z,996.20
2018-12-02T06:54:31.069Z,996.16
2018-12-02T06:55:31.054Z,996.18
2018-12-02T06:56:31.038Z,996.22
2018-12-02T06:57:31.050Z,996.24
2018-12-02T06:58:31.023Z,996.21
2018-12-02T06:59:30.975Z,996.23
2018-12-02T07:00:30.957Z,996.21
2018-12-02T07:01:30.934Z,996.25
2018-12-02T07:02:30.918Z,996.23
2018-12-02T07:03:30.917Z,996.18
2018-12-02T07:04:30.875Z,996.21
2018-12-02T07:05:30.865Z,996.24
2018-12-02T07:06:30.854Z,996.18
2018-12-02T07:07:30.816Z,996.21
2018-12-02T07:08:30.800Z,996.19
2018-12-02T07:09:30.775Z,996.19
2018-12-02T07:10:30.757Z,996.17
2018-12-02T07:11:30.749Z,996.16
2018-12-02T07:12:30.717Z,996.17
2018-12-02T07:13:30.704Z,996.20
2018-12-02T07:14:30.675Z,996.15
2018-12-02T07:15:30.662Z,996.19
2018-12-02T07:16:30.650Z,996.16
2018-12-02T07:17:30.617Z,996.21
2018-12-02T07:18:30.595Z,996.18
2018-12-02T07:19:30.593Z,996.18
2018-12-02T07:20:30.549Z,996.17
2018-12-02T07:21:30.535Z,996.16
2018-12-02T07:22:30.508Z,996.17
2018-12-02T07:23:30.490Z,996.14
2018-12-02T07:24:30.471Z,996.19
2018-12-02T07:25:30.470Z,996.15
2018-12-02T07:26:30.429Z,996.19
2018-12-02T07:27:30.409Z,996.14
2018-12-02T07:28:30.391Z,996.10
2018-12-02T07:29:30.369Z,996.07
2018-12-02T07:30:30.375Z,996.07
2018-12-02T07:31:30.351Z,996.14
2018-12-02T07:32:30.313Z,996.05
2018-12-02T07:33:30.294Z,996.11
2018-12-02T07:34:30.299Z,996.03
2018-12-02T07:35:30.265Z,996.01
2018-12-02T07:36:30.256Z,996.03
2018-12-02T07:37:30.221Z,996.03
2018-12-02T07:38:30.203Z,996.03
2018-12-02T07:39:30.167Z,996.02
2018-12-02T07:40:30.178Z,996.02
2018-12-02T07:41:30.135Z,996.00
2018-12-02T07:42:30.156Z,995.99
2018-12-02T07:43:30.097Z,995.97
2018-12-02T07:44:30.112Z,995.98
2018-12-02T07:45:30.055Z,995.97
2018-12-02T07:46:30.032Z,996.00
2018-12-02T07:47:30.018Z,996.01
2018-12-02T07:48:30.016Z,996.02
2018-12-02T07:49:29.983Z,995.98
2018-12-02T07:50:29.967Z,996.01
2018-12-02T07:51:29.937Z,996.04
2018-12-02T07:52:29.913Z,995.99
2018-12-02T07:53:29.898Z,995.97
2018-12-02T07:54:29.916Z,995.99
2018-12-02T07:55:29.870Z,996.05
2018-12-02T07:56:29.848Z,996.05
2018-12-02T07:57:29.819Z,996.04
2018-12-02T07:58:29.798Z,996.05
2018-12-02T07:59:29.779Z,996.08
2018-12-02T08:00:29.771Z,996.13
2018-12-02T08:01:29.753Z,996.09
2018-12-02T08:02:29.727Z,996.09
2018-12-02T08:03:29.692Z,996.07
2018-12-02T08:04:29.681Z,996.07
2018-12-02T08:05:29.661Z,996.09
2018-12-02T08:06:29.639Z,996.01
2018-12-02T08:07:29.646Z,996.02
2018-12-02T08:08:29.596Z,996.05
2018-12-02T08:09:29.583Z,996.02
2018-12-02T08:10:29.557Z,996.02
2018-12-02T08:11:29.544Z,996.01
2018-12-02T08:12:29.526Z,996.02
2018-12-02T08:13:29.520Z,996.03
2018-12-02T08:14:29.482Z,996.01
2018-12-02T08:15:29.467Z,995.98
2018-12-02T08:16:29.440Z,995.96
2018-12-02T08:17:29.423Z,996.01
2018-12-02T08:18:29.414Z,996.03
2018-12-02T08:19:29.401Z,996.01
2018-12-02T08:20:29.363Z,996.03
2018-12-02T08:21:29.371Z,995.99
2018-12-02T08:22:29.377Z,995.98
2018-12-02T08:23:29.312Z,995.99
2018-12-02T08:24:29.304Z,995.98
2018-12-02T08:25:29.262Z,995.98
2018-12-02T08:26:29.251Z,995.96
2018-12-02T08:27:29.226Z,995.95
2018-12-02T08:28:29.205Z,995.93
2018-12-02T08:29:29.203Z,995.96
2018-12-02T08:30:29.163Z,995.97
2018-12-02T08:31:29.144Z,996.02
2018-12-02T08:32:29.135Z,996.00
2018-12-02T08:33:29.108Z,996.01
2018-12-02T08:34:29.089Z,996.03
2018-12-02T08:35:29.089Z,996.04
2018-12-02T08:36:29.049Z,995.97
2018-12-02T08:37:29.031Z,996.02
2018-12-02T08:38:29.005Z,996.00
2018-12-02T08:39:29.007Z,995.99
2018-12-02T08:40:28.967Z,995.99
2018-12-02T08:41:28.952Z,995.97
2018-12-02T08:42:28.952Z,995.96
2018-12-02T08:43:28.911Z,996.04
2018-12-02T08:44:28.891Z,996.06
2018-12-02T08:45:28.871Z,996.04
2018-12-02T08:46:28.878Z,996.07
2018-12-02T08:47:28.839Z,996.07
2018-12-02T08:48:28.830Z,996.08
2018-12-02T08:49:28.796Z,996.00
2018-12-02T08:50:28.777Z,996.05
2018-12-02T08:51:28.788Z,996.07
2018-12-02T08:52:28.739Z,996.09
2018-12-02T08:53:28.715Z,996.05
2018-12-02T08:54:28.701Z,996.04
2018-12-02T08:55:28.683Z,996.05
2018-12-02T08:56:28.666Z,996.05
2018-12-02T08:57:28.660Z,996.05
2018-12-02T08:58:28.636Z,995.99
2018-12-02T08:59:28.613Z,996.03
2018-12-02T09:00:28.590Z,996.00
2018-12-02T09:01:28.565Z,995.99
2018-12-02T09:02:28.551Z,996.03
2018-12-02T09:03:28.564Z,996.03
2018-12-02T09:04:28.507Z,996.06
2018-12-02T09:05:28.489Z,996.11
2018-12-02T09:06:28.474Z,996.09
2018-12-02T09:07:28.454Z,996.07
2018-12-02T09:08:28.435Z,996.01
2018-12-02T09:09:28.666Z,996.02
2018-12-02T09:10:28.397Z,995.99
2018-12-02T09:11:28.386Z,995.99
2018-12-02T09:12:28.354Z,996.05
2018-12-02T09:13:28.338Z,996.03
2018-12-02T09:14:28.324Z,996.10
2018-12-02T09:15:28.320Z,996.10
2018-12-02T09:16:28.280Z,996.11
2018-12-02T09:17:28.258Z,996.09
2018-12-02T09:18:28.240Z,996.07
2018-12-02T09:19:28.228Z,996.08
2018-12-02T09:20:28.361Z,996.05
2018-12-02T09:21:28.198Z,996.05
2018-12-02T09:22:28.163Z,996.04
2018-12-02T09:23:28.152Z,996.03
2018-12-02T09:24:28.124Z,996.01
2018-12-02T09:25:28.109Z,996.03
2018-12-02T09:26:28.122Z,995.96
2018-12-02T09:27:28.075Z,996.00
2018-12-02T09:28:28.048Z,996.05
2018-12-02T09:29:28.035Z,995.95
2018-12-02T09:30:28.012Z,996.02
2018-12-02T09:31:28.006Z,996.03
2018-12-02T09:32:27.975Z,996.05
2018-12-02T09:33:27.960Z,996.06
2018-12-02T09:34:27.936Z,996.04
2018-12-02T09:35:27.911Z,995.98
2018-12-02T09:36:27.920Z,996.06
2018-12-02T09:37:27.897Z,996.09
2018-12-02T09:38:27.940Z,996.06
2018-12-02T09:39:27.840Z,996.10
2018-12-02T09:40:27.816Z,996.15
2018-12-02T09:41:27.809Z,996.10
2018-12-02T09:42:27.803Z,996.12
2018-12-02T09:43:27.764Z,996.08
2018-12-02T09:44:27.744Z,996.09
2018-12-02T09:45:27.723Z,996.09
2018-12-02T09:46:27.710Z,996.16
2018-12-02T09:47:27.721Z,996.12
2018-12-02T09:48:27.680Z,996.15
2018-12-02T09:49:27.651Z,996.16
2018-12-02T09:50:27.634Z,996.14
2018-12-02T09:51:27.618Z,996.19
2018-12-02T09:52:27.603Z,996.17
2018-12-02T09:53:27.593Z,996.21
2018-12-02T09:54:27.580Z,996.19
2018-12-02T09:55:27.542Z,996.20
2018-12-02T09:56:27.581Z,996.25
2018-12-02T09:57:27.500Z,996.28
2018-12-02T09:58:27.504Z,996.21
2018-12-02T09:59:27.472Z,996.24
2018-12-02T10:00:27.449Z,996.26
2018-12-02T10:01:27.430Z,996.28
2018-12-02T10:02:27.410Z,996.23
2018-12-02T10:03:27.389Z,996.24
2018-12-02T10:04:27.391Z,996.24
2018-12-02T10:05:27.349Z,996.24
2018-12-02T10:06:27.337Z,996.27
2018-12-02T10:07:27.323Z,996.21
2018-12-02T10:08:27.317Z,996.20
2018-12-02T10:09:27.281Z,996.28
2018-12-02T10:10:27.270Z,996.28
2018-12-02T10:11:27.239Z,996.35
2018-12-02T10:12:27.220Z,996.36
2018-12-02T10:13:27.212Z,996.34
2018-12-02T10:14:27.203Z,996.30
2018-12-02T10:15:27.182Z,996.38
2018-12-02T10:16:27.169Z,996.35
2018-12-02T10:17:27.137Z,996.38
2018-12-02T10:18:27.114Z,996.33
2018-12-02T10:19:27.099Z,996.31
2018-12-02T10:20:27.076Z,996.38
2018-12-02T10:21:27.089Z,996.30
2018-12-02T10:22:27.038Z,996.26
2018-12-02T10:23:27.017Z,996.37
2018-12-02T10:24:27.004Z,996.31
2018-12-02T10:25:27.000Z,996.28
2018-12-02T10:26:26.963Z,996.28
2018-12-02T10:27:26.953Z,996.27
2018-12-02T10:28:26.964Z,996.27
2018-12-02T10:29:26.914Z,996.29
2018-12-02T10:30:26.925Z,996.29
2018-12-02T10:31:26.868Z,996.24
2018-12-02T10:32:26.851Z,996.26
2018-12-02T10:33:26.832Z,996.26
2018-12-02T10:34:26.814Z,996.22
2018-12-02T10:35:26.814Z,996.20
2018-12-02T10:36:26.781Z,996.25
2018-12-02T10:37:26.764Z,996.15
2018-12-02T10:38:26.761Z,996.20
2018-12-02T10:39:26.752Z,996.20
2018-12-02T10:40:26.705Z,996.14
2018-12-02T10:41:26.689Z,996.13
2018-12-02T10:42:26.674Z,996.07
2018-12-02T10:43:26.658Z,996.11
2018-12-02T10:44:26.643Z,996.15
2018-12-02T10:45:26.633Z,996.11
2018-12-02T10:46:26.600Z,996.12
2018-12-02T10:47:26.589Z,996.06
2018-12-02T10:48:26.582Z,996.14
2018-12-02T10:49:26.544Z,996.12
2018-12-02T10:50:26.552Z,996.09
2018-12-02T10:51:26.513Z,996.08
2018-12-02T10:52:26.512Z,996.09
2018-12-02T10:53:26.473Z,996.06
2018-12-02T10:54:26.451Z,996.01
2018-12-02T10:55:26.431Z,996.12
2018-12-02T10:56:26.445Z,996.09
2018-12-02T10:57:26.399Z,996.13
2018-12-02T10:58:26.383Z,996.08
2018-12-02T10:59:26.363Z,996.08
2018-12-02T11:00:26.373Z,996.06
2018-12-02T11:01:26.330Z,996.10
2018-12-02T11:02:26.311Z,996.10
2018-12-02T11:03:26.298Z,996.06
2018-12-02T11:04:26.274Z,996.13
2018-12-02T11:05:26.255Z,996.11
2018-12-02T11:06:26.249Z,996.15
2018-12-02T11:07:26.217Z,996.08
2018-12-02T11:08:26.210Z,996.17
2018-12-02T11:09:26.204Z,996.11
2018-12-02T11:10:26.168Z,996.14
2018-12-02T11:11:26.148Z,996.12
2018-12-02T11:12:26.139Z,996.12
2018-12-02T11:13:26.114Z,996.11
2018-12-02T11:14:26.108Z,996.10
2018-12-02T11:15:26.086Z,996.15
2018-12-02T11:16:26.078Z,996.16
2018-12-02T11:17:26.071Z,996.10
2018-12-02T11:18:26.020Z,996.10
2018-12-02T11:19:26.027Z,996.05
2018-12-02T11:20:25.990Z,996.09
2018-12-02T11:21:25.969Z,996.13
2018-12-02T11:22:25.951Z,996.09
2018-12-02T11:23:25.934Z,996.14
2018-12-02T11:24:25.926Z,996.15
2018-12-02T11:25:25.899Z,996.15
2018-12-02T11:26:25.872Z,996.10
2018-12-02T11:27:25.859Z,996.21
2018-12-02T11:28:25.853Z,996.24
2018-12-02T11:29:25.839Z,996.17
2018-12-02T11:30:25.801Z,996.21
2018-12-02T11:31:25.788Z,996.26
2018-12-02T11:32:25.768Z,996.24
2018-12-02T11:33:25.754Z,996.25
2018-12-02T11:34:25.732Z,996.30
2018-12-02T11:35:25.745Z,996.29
2018-12-02T11:36:25.707Z,996.21
2018-12-02T11:37:25.681Z,996.35
2018-12-02T11:38:25.658Z,996.27
2018-12-02T11:39:25.649Z,996.37
2018-12-02T11:40:25.638Z,996.31
2018-12-02T11:41:25.632Z,996.34
2018-12-02T11:42:25.599Z,996.28
2018-12-02T11:43:25.576Z,996.36
2018-12-02T11:44:25.555Z,996.33
2018-12-02T11:45:25.551Z,996.35
2018-12-02T11:46:25.522Z,996.36
2018-12-02T11:47:25.525Z,996.32
2018-12-02T11:48:25.487Z,996.39
2018-12-02T11:49:25.465Z,996.39
2018-12-02T11:50:25.469Z,996.37
2018-12-02T11:51:25.458Z,996.44
2018-12-02T11:52:25.430Z,996.42
2018-12-02T11:53:25.395Z,996.44
2018-12-02T11:54:25.380Z,996.49
2018-12-02T11:55:25.371Z,996.44
2018-12-02T11:56:25.345Z,996.45
2018-12-02T11:57:26.639Z,996.50
2018-12-02T11:58:25.310Z,996.44
2018-12-02T11:59:25.290Z,996.43
2018-12-02T12:00:25.277Z,996.49
2018-12-02T12:01:25.257Z,996.54
2018-12-02T12:02:25.258Z,996.48
2018-12-02T12:03:25.220Z,996.51
2018-12-02T12:04:25.201Z,996.52
2018-12-02T12:05:26.083Z,996.57
2018-12-02T12:06:25.176Z,996.51
2018-12-02T12:07:25.157Z,996.52
2018-12-02T12:08:25.156Z,996.50
2018-12-02T12:09:25.132Z,996.50
2018-12-02T12:10:25.100Z,996.58
2018-12-02T12:11:25.083Z,996.62
2018-12-02T12:12:25.063Z,996.57
2018-12-02T12:13:25.044Z,996.63
2018-12-02T12:14:25.045Z,996.56
2018-12-02T12:15:25.004Z,996.61
2018-12-02T12:16:25.000Z,996.60
2018-12-02T12:17:24.985Z,996.62
2018-12-02T12:18:24.961Z,996.63
2018-12-02T12:19:24.940Z,996.62
2018-12-02T12:20:24.946Z,996.68
2018-12-02T12:21:24.913Z,996.66
2018-12-02T12:22:24.894Z,996.63
2018-12-02T12:23:24.889Z,996.61
2018-12-02T12:24:24.857Z,996.59
2018-12-02T12:25:24.841Z,996.63
2018-12-02T12:26:24.827Z,996.67
2018-12-02T12:27:24.804Z,996.57